Time;durP1;ratioP1;P1;durP2;ratioP2;P2;SDS_P1;SDS_P2;PMS_P1;PMS_P2;Temp;Humidity;BMP_temperature;BMP_pressure;BME280_temperature;BME280_humidity;BME280_pressure;Samples;Min_cycle;Max_cycle;Signal;HPM_P1;HPM_P2
2022/09/11 00:01:55;;;;;;;;;;;;;;;13.88;100.00;98499.46;105004;1271;61304;-70
2022/09/11 00:04:21;;;;;;;;;;;;;;;13.89;100.00;98497.02;105067;1271;61283;-70
2022/09/11 00:06:48;;;;;;;;;;;;;;;13.90;100.00;98495.27;105032;1271;61275;-71
2022/09/11 00:09:14;;;;;;;;;;;;;;;13.92;100.00;98489.92;105043;1271;61613;-70
2022/09/11 00:11:41;;;;;;;;;;;;;;;13.93;100.00;98489.84;105014;1271;61321;-70
2022/09/11 00:14:09;;;;;;;;;;;;;;;13.94;100.00;98484.73;105056;1271;61289;-70
2022/09/11 00:16:37;;;;;;;;;;;;;;;13.96;100.00;98483.19;105040;1271;74794;-70
2022/09/11 00:19:05;;;;;;;;;;;;;;;13.97;100.00;98482.03;105068;1271;61264;-69
2022/09/11 00:21:32;;;;;;;;;;;;;;;13.97;100.00;98477.83;105248;1271;61389;-69
2022/09/11 00:23:57;;;;;;;;;;;;;;;13.98;100.00;98476.52;105025;1271;61271;-69
2022/09/11 00:26:24;;;;;;;;;;;;;;;14.00;100.00;98474.41;105063;1271;61437;-69
2022/09/11 00:28:51;;;;;;;;;;;;;;;14.01;100.00;98478.78;105051;1271;61459;-70
2022/09/11 00:31:18;;;;;;;;;;;;;;;14.02;100.00;98476.89;105076;1271;61699;-70
2022/09/11 00:33:45;;;;;;;;;;;;;;;14.03;100.00;98477.83;105035;1271;61708;-70
2022/09/11 00:36:12;;;;;;;;;;;;;;;14.04;100.00;98477.96;105007;1271;61264;-70
2022/09/11 00:38:38;;;;;;;;;;;;;;;14.03;100.00;98477.48;105039;1271;70292;-69
2022/09/11 00:41:07;;;;;;;;;;;;;;;14.02;100.00;98482.38;105009;1271;61352;-70
2022/09/11 00:43:50;;;;;;;;;;;;;;;14.01;100.00;98484.67;105006;1271;61309;-69
2022/09/11 00:46:16;;;;;;;;;;;;;;;14.00;100.00;98485.27;105009;1271;61228;-70
2022/09/11 00:48:48;;;;;;;;;;;;;;;13.99;100.00;98483.98;105006;1271;61344;-69
2022/09/11 00:51:18;;;;;;;;;;;;;;;13.98;100.00;98480.09;105103;1271;70593;-69
2022/09/11 00:53:45;;;;;;;;;;;;;;;13.98;100.00;98482.42;105011;1271;73481;-70
2022/09/11 00:56:12;;;;;;;;;;;;;;;13.98;100.00;98482.42;104992;1271;61244;-70
2022/09/11 00:58:41;;;;;;;;;;;;;;;13.99;100.00;98487.67;104917;1272;61653;-70
2022/09/11 01:01:07;;;;;;;;;;;;;;;14.00;100.00;98490.63;105042;1272;75244;-69
2022/09/11 01:03:33;;;;;;;;;;;;;;;14.01;100.00;98492.70;104977;1271;61383;-69
2022/09/11 01:05:59;;;;;;;;;;;;;;;14.02;100.00;98492.28;104993;1271;61381;-70
2022/09/11 01:08:26;;;;;;;;;;;;;;;14.02;100.00;98491.91;104990;1271;61373;-69
2022/09/11 01:10:52;;;;;;;;;;;;;;;14.01;100.00;98489.14;105009;1271;61296;-70
2022/09/11 01:13:32;;;;;;;;;;;;;;;13.99;100.00;98493.04;105027;1271;61586;-70
2022/09/11 01:16:17;;;;;;;;;;;;;;;13.99;100.00;98494.16;105049;1271;69414;-70
2022/09/11 01:19:02;;;;;;;;;;;;;;;13.98;100.00;98493.53;105005;1271;72849;-70
2022/09/11 01:21:34;;;;;;;;;;;;;;;13.97;100.00;98493.59;105018;1271;61257;-70
2022/09/11 01:24:14;;;;;;;;;;;;;;;13.96;100.00;98494.95;104994;1271;61350;-70
2022/09/11 01:27:01;;;;;;;;;;;;;;;13.95;100.00;98490.77;105044;1271;76275;-70
2022/09/11 01:29:34;;;;;;;;;;;;;;;13.93;100.00;98490.02;105005;1271;70259;-70
2022/09/11 01:32:00;;;;;;;;;;;;;;;13.91;100.00;98486.84;104996;1271;74472;-71
2022/09/11 01:34:35;;;;;;;;;;;;;;;13.88;100.00;98482.77;105028;1272;61253;-71
2022/09/11 01:37:04;;;;;;;;;;;;;;;13.86;100.00;98483.33;105011;1271;61209;-71
2022/09/11 01:39:33;;;;;;;;;;;;;;;13.84;100.00;98480.60;105017;1271;75354;-70
2022/09/11 01:42:05;;;;;;;;;;;;;;;13.83;100.00;98478.95;105034;1271;70386;-70
2022/09/11 01:44:36;;;;;;;;;;;;;;;13.80;100.00;98471.66;104993;1271;73643;-71
2022/09/11 01:47:04;;;;;;;;;;;;;;;13.79;100.00;98469.68;104986;1271;61363;-71
2022/09/11 01:49:42;;;;;;;;;;;;;;;13.77;100.00;98467.85;105027;1271;61259;-70
2022/09/11 01:52:11;;;;;;;;;;;;;;;13.77;100.00;98466.77;105016;1271;76204;-70
2022/09/11 01:54:46;;;;;;;;;;;;;;;13.75;100.00;98462.52;105036;1271;70573;-70
2022/09/11 01:57:17;;;;;;;;;;;;;;;13.74;100.00;98463.48;104954;1272;74717;-69
2022/09/11 01:59:45;;;;;;;;;;;;;;;13.72;100.00;98463.30;104987;1271;61251;-69
2022/09/11 02:02:12;;;;;;;;;;;;;;;13.70;100.00;98467.42;104896;1272;61183;-69
2022/09/11 02:04:48;;;;;;;;;;;;;;;13.69;100.00;98466.31;104982;1273;76426;-70
2022/09/11 02:07:18;;;;;;;;;;;;;;;13.67;100.00;98472.34;104979;1271;70370;-71
2022/09/11 02:09:46;;;;;;;;;;;;;;;13.66;100.00;98470.80;104960;1272;74642;-71
2022/09/11 02:12:15;;;;;;;;;;;;;;;13.66;100.00;98472.59;105140;1271;61351;-70
2022/09/11 02:14:42;;;;;;;;;;;;;;;13.66;100.00;98474.39;104893;1273;61277;-69
2022/09/11 02:17:16;;;;;;;;;;;;;;;13.66;100.00;98470.64;104987;1271;75411;-70
2022/09/11 02:19:42;;;;;;;;;;;;;;;13.66;100.00;98470.84;105012;1271;69429;-70
2022/09/11 02:22:08;;;;;;;;;;;;;;;13.66;100.00;98471.70;105023;1271;61380;-70
2022/09/11 02:24:34;;;;;;;;;;;;;;;13.66;100.00;98472.24;104993;1271;61301;-70
2022/09/11 02:27:01;;;;;;;;;;;;;;;13.66;100.00;98467.09;104998;1271;61354;-69
2022/09/11 02:29:27;;;;;;;;;;;;;;;13.64;100.00;98462.42;104986;1271;63398;-70
2022/09/11 02:31:54;;;;;;;;;;;;;;;13.63;100.00;98459.53;105017;1273;61368;-70
2022/09/11 02:34:25;;;;;;;;;;;;;;;13.61;100.00;98460.15;104898;1271;61495;-69
2022/09/11 02:37:21;;;;;;;;;;;;;;;13.59;100.00;98458.92;104988;1271;61284;-71
2022/09/11 02:40:05;;;;;;;;;;;;;;;13.58;100.00;98458.46;104545;1277;61248;-70
2022/09/11 02:42:37;;;;;;;;;;;;;;;13.57;100.00;98456.99;104539;1277;76712;-70
2022/09/11 02:45:05;;;;;;;;;;;;;;;13.55;100.00;98455.30;104535;1277;69190;-70
2022/09/11 02:47:41;;;;;;;;;;;;;;;13.55;100.00;98461.02;104507;1277;74540;-70
2022/09/11 02:50:21;;;;;;;;;;;;;;;13.55;100.00;98460.48;104351;1277;61316;-70
2022/09/11 02:53:06;;;;;;;;;;;;;;;13.56;100.00;98461.89;104652;1277;61439;-70
2022/09/11 02:55:51;;;;;;;;;;;;;;;13.55;100.00;98460.85;104556;1277;75442;-70
2022/09/11 02:58:20;;;;;;;;;;;;;;;13.55;100.00;98459.77;104551;1277;70411;-70
2022/09/11 03:00:46;;;;;;;;;;;;;;;13.54;100.00;98462.88;104568;1277;74352;-71
2022/09/11 03:03:13;;;;;;;;;;;;;;;13.55;100.00;98462.35;104578;1277;61297;-69
2022/09/11 03:05:40;;;;;;;;;;;;;;;13.55;100.00;98460.17;104555;1277;62012;-69
2022/09/11 03:08:06;;;;;;;;;;;;;;;13.55;100.00;98465.89;104738;1277;75107;-70
2022/09/11 03:10:33;;;;;;;;;;;;;;;13.55;100.00;98461.77;104556;1277;61419;-69
2022/09/11 03:12:59;;;;;;;;;;;;;;;13.55;100.00;98458.20;104574;1276;61314;-69
2022/09/11 03:15:25;;;;;;;;;;;;;;;13.54;100.00;98459.20;104554;1277;61340;-69
2022/09/11 03:17:51;;;;;;;;;;;;;;;13.53;100.00;98461.83;104969;1272;61255;-71
2022/09/11 03:20:18;;;;;;;;;;;;;;;13.51;100.00;98465.86;105002;1271;61365;-70
2022/09/11 03:22:44;;;;;;;;;;;;;;;13.49;100.00;98465.30;105078;1271;61398;-71
2022/09/11 03:25:10;;;;;;;;;;;;;;;13.48;100.00;98465.45;105005;1271;61344;-70
2022/09/11 03:27:40;;;;;;;;;;;;;;;13.46;100.00;98466.53;104957;1273;61359;-70
2022/09/11 03:30:07;;;;;;;;;;;;;;;13.44;100.00;98459.77;104886;1272;61222;-71
2022/09/11 03:32:33;;;;;;;;;;;;;;;13.42;100.00;98463.80;104996;1271;61311;-71
2022/09/11 03:35:00;;;;;;;;;;;;;;;13.41;100.00;98466.40;104994;1271;61363;-70
2022/09/11 03:37:26;;;;;;;;;;;;;;;13.41;100.00;98463.25;104895;1273;74211;-70
2022/09/11 03:39:53;;;;;;;;;;;;;;;13.39;100.00;98461.44;104879;1273;61444;-70
2022/09/11 03:42:20;;;;;;;;;;;;;;;13.37;100.00;98459.60;104901;1271;61158;-71
2022/09/11 03:44:45;;;;;;;;;;;;;;;13.35;100.00;98455.98;104986;1271;61285;-70
2022/09/11 03:47:12;;;;;;;;;;;;;;;13.33;100.00;98454.73;104974;1272;61342;-72
2022/09/11 03:49:38;;;;;;;;;;;;;;;13.32;100.00;98453.61;104970;1272;61368;-71
2022/09/11 03:52:04;;;;;;;;;;;;;;;13.32;100.00;98451.49;104955;1273;61349;-71
2022/09/11 03:54:31;;;;;;;;;;;;;;;13.31;100.00;98452.60;104984;1271;62262;-71
2022/09/11 03:56:58;;;;;;;;;;;;;;;13.31;100.00;98452.09;105219;1271;61337;-71
2022/09/11 03:59:24;;;;;;;;;;;;;;;13.31;100.00;98453.00;105035;1271;61314;-70
2022/09/11 04:01:50;;;;;;;;;;;;;;;13.31;100.00;98451.89;104986;1272;61336;-70
2022/09/11 04:04:17;;;;;;;;;;;;;;;13.31;100.00;98449.39;105012;1271;61368;-71
2022/09/11 04:06:43;;;;;;;;;;;;;;;13.32;100.00;98449.19;104993;1271;61272;-71
2022/09/11 04:09:09;;;;;;;;;;;;;;;13.32;100.00;98452.00;105014;1273;61352;-69
2022/09/11 04:11:37;;;;;;;;;;;;;;;13.33;100.00;98452.11;105020;1271;61353;-69
2022/09/11 04:14:04;;;;;;;;;;;;;;;13.33;100.00;98452.27;104990;1272;61330;-71
2022/09/11 04:16:31;;;;;;;;;;;;;;;13.34;100.00;98453.75;105092;1272;61358;-70
2022/09/11 04:18:59;;;;;;;;;;;;;;;13.35;100.00;98454.41;104973;1271;61251;-70
2022/09/11 04:21:26;;;;;;;;;;;;;;;13.35;100.00;98451.73;104958;1273;75428;-69
2022/09/11 04:23:55;;;;;;;;;;;;;;;13.36;100.00;98450.73;105002;1272;69509;-70
2022/09/11 04:26:24;;;;;;;;;;;;;;;13.37;100.00;98450.85;105200;1271;73108;-71
2022/09/11 04:28:50;;;;;;;;;;;;;;;13.38;100.00;98451.12;105018;1271;61302;-70
2022/09/11 04:31:17;;;;;;;;;;;;;;;13.38;100.00;98450.21;105036;1272;61372;-70
2022/09/11 04:33:44;;;;;;;;;;;;;;;13.38;100.00;98447.51;105233;1272;75204;-69
2022/09/11 04:36:12;;;;;;;;;;;;;;;13.41;100.00;98448.23;105161;1271;69524;-70
2022/09/11 04:38:42;;;;;;;;;;;;;;;13.43;100.00;98453.95;105046;1271;73395;-70
2022/09/11 04:41:08;;;;;;;;;;;;;;;13.45;100.00;98456.08;104977;1273;61285;-70
2022/09/11 04:43:36;;;;;;;;;;;;;;;13.48;100.00;98456.85;105057;1271;61265;-69
2022/09/11 04:46:06;;;;;;;;;;;;;;;13.54;100.00;98452.25;104969;1271;76778;-69
2022/09/11 04:48:32;;;;;;;;;;;;;;;13.61;100.00;98451.80;105011;1271;69215;-69
2022/09/11 04:51:00;;;;;;;;;;;;;;;13.68;100.00;98451.55;104908;1271;61301;-69
2022/09/11 04:53:27;;;;;;;;;;;;;;;13.71;100.00;98451.27;104965;1271;61352;-70
2022/09/11 04:56:06;;;;;;;;;;;;;;;13.73;100.00;98448.91;105050;1271;61212;-70
2022/09/11 04:58:32;;;;;;;;;;;;;;;13.74;100.00;98445.26;105184;1271;75377;-69
2022/09/11 05:00:58;;;;;;;;;;;;;;;13.76;100.00;98444.89;104986;1271;61313;-69
2022/09/11 05:03:24;;;;;;;;;;;;;;;13.78;100.00;98450.51;104982;1271;61382;-72
2022/09/11 05:05:50;;;;;;;;;;;;;;;13.77;100.00;98446.05;104989;1271;61288;-71
2022/09/11 05:08:17;;;;;;;;;;;;;;;13.79;100.00;98445.20;104976;1271;61403;-71
2022/09/11 05:10:45;;;;;;;;;;;;;;;13.79;100.00;98448.54;104996;1271;61392;-70
2022/09/11 05:13:13;;;;;;;;;;;;;;;13.80;100.00;98451.01;105045;1271;69431;-71
2022/09/11 05:15:38;;;;;;;;;;;;;;;13.80;100.00;98450.49;105127;1271;73261;-69
2022/09/11 05:18:05;;;;;;;;;;;;;;;13.81;100.00;98449.61;104964;1271;61353;-69
2022/09/11 05:20:31;;;;;;;;;;;;;;;13.83;100.00;98450.02;105035;1271;61158;-70
2022/09/11 05:22:57;;;;;;;;;;;;;;;13.84;100.00;98455.23;104956;1271;61377;-70
2022/09/11 05:25:24;;;;;;;;;;;;;;;13.85;100.00;98453.07;104985;1271;61358;-70
2022/09/11 05:27:50;;;;;;;;;;;;;;;13.85;100.00;98453.08;104955;1271;61396;-70
2022/09/11 05:30:16;;;;;;;;;;;;;;;13.86;100.00;98454.23;104984;1271;61344;-70
2022/09/11 05:32:42;;;;;;;;;;;;;;;13.88;100.00;98456.95;104951;1271;61188;-70
2022/09/11 05:35:09;;;;;;;;;;;;;;;13.89;100.00;98460.89;105160;1271;61342;-68
2022/09/11 05:37:35;;;;;;;;;;;;;;;13.92;100.00;98462.64;105019;1271;61275;-70
2022/09/11 05:40:05;;;;;;;;;;;;;;;13.96;100.00;98466.52;104978;1271;61367;-69
2022/09/11 05:42:31;;;;;;;;;;;;;;;14.01;100.00;98463.95;104891;1272;61409;-69
2022/09/11 05:44:56;;;;;;;;;;;;;;;14.06;100.00;98462.83;104975;1271;61346;-70
2022/09/11 05:47:23;;;;;;;;;;;;;;;14.09;100.00;98461.81;104993;1271;61282;-69
2022/09/11 05:49:48;;;;;;;;;;;;;;;14.11;100.00;98462.91;104983;1271;61377;-69
2022/09/11 05:52:14;;;;;;;;;;;;;;;14.10;100.00;98462.80;105001;1271;62947;-70
2022/09/11 05:54:41;;;;;;;;;;;;;;;14.11;100.00;98463.85;104970;1271;61353;-69
2022/09/11 05:57:07;;;;;;;;;;;;;;;14.13;100.00;98460.23;104984;1271;61266;-70
2022/09/11 05:59:33;;;;;;;;;;;;;;;14.16;100.00;98461.20;105013;1271;61303;-69
2022/09/11 06:01:59;;;;;;;;;;;;;;;14.18;100.00;98461.33;104969;1271;73871;-70
2022/09/11 06:04:26;;;;;;;;;;;;;;;14.23;100.00;98455.77;104824;1271;61278;-69
2022/09/11 06:06:52;;;;;;;;;;;;;;;14.26;100.00;98463.30;104956;1271;61681;-69
2022/09/11 06:09:20;;;;;;;;;;;;;;;14.31;100.00;98459.84;105041;1271;75068;-69
2022/09/11 06:11:46;;;;;;;;;;;;;;;14.37;100.00;98465.18;104976;1271;61368;-70
2022/09/11 06:14:12;;;;;;;;;;;;;;;14.44;100.00;98467.05;104944;1271;61448;-70
2022/09/11 06:16:39;;;;;;;;;;;;;;;14.53;100.00;98466.05;104956;1271;61348;-70
2022/09/11 06:19:06;;;;;;;;;;;;;;;14.63;100.00;98469.63;104969;1271;61305;-70
2022/09/11 06:21:32;;;;;;;;;;;;;;;14.69;100.00;98467.67;103801;1271;1403666;-70
2022/09/11 06:23:58;;;;;;;;;;;;;;;14.69;100.00;98473.66;104970;1271;61247;-70
2022/09/11 06:26:25;;;;;;;;;;;;;;;14.73;100.00;98474.73;104973;1271;61335;-70
2022/09/11 06:28:52;;;;;;;;;;;;;;;14.80;100.00;98471.48;105018;1271;61402;-70
2022/09/11 06:31:20;;;;;;;;;;;;;;;14.86;100.00;98467.50;104991;1271;61299;-71
2022/09/11 06:33:46;;;;;;;;;;;;;;;14.94;100.00;98469.11;105013;1271;75363;-71
2022/09/11 06:36:14;;;;;;;;;;;;;;;15.00;100.00;98464.04;105018;1271;70598;-71
2022/09/11 06:38:40;;;;;;;;;;;;;;;15.04;100.00;98465.81;104947;1271;73543;-71
2022/09/11 06:41:11;;;;;;;;;;;;;;;15.05;100.00;98466.95;104982;1271;61301;-70
2022/09/11 06:43:37;;;;;;;;;;;;;;;15.08;100.00;98467.73;105014;1271;61447;-70
2022/09/11 06:46:04;;;;;;;;;;;;;;;15.14;100.00;98469.18;105021;1271;61260;-69
2022/09/11 06:48:30;;;;;;;;;;;;;;;15.20;100.00;98471.80;104993;1271;70272;-71
2022/09/11 06:51:00;;;;;;;;;;;;;;;15.30;100.00;98474.11;104999;1271;61451;-71
2022/09/11 06:53:26;;;;;;;;;;;;;;;15.43;100.00;98473.06;104979;1271;61267;-71
2022/09/11 06:55:52;;;;;;;;;;;;;;;15.59;100.00;98474.59;105003;1271;61316;-70
2022/09/11 06:58:18;;;;;;;;;;;;;;;15.75;100.00;98474.98;104991;1271;61325;-71
2022/09/11 07:00:44;;;;;;;;;;;;;;;15.81;100.00;98471.95;104910;1274;61290;-71
2022/09/11 07:03:10;;;;;;;;;;;;;;;15.82;100.00;98473.12;104948;1271;61351;-71
2022/09/11 07:05:37;;;;;;;;;;;;;;;15.91;100.00;98465.04;104999;1271;61477;-71
2022/09/11 07:08:04;;;;;;;;;;;;;;;16.08;100.00;98469.42;105007;1271;61404;-70
2022/09/11 07:10:31;;;;;;;;;;;;;;;16.31;100.00;98474.55;104983;1271;61214;-70
2022/09/11 07:12:58;;;;;;;;;;;;;;;16.50;100.00;98472.15;104853;1276;61335;-70
2022/09/11 07:15:25;;;;;;;;;;;;;;;16.59;100.00;98476.14;104985;1271;61378;-70
2022/09/11 07:17:51;;;;;;;;;;;;;;;16.66;100.00;98473.55;105030;1271;61318;-70
2022/09/11 07:20:19;;;;;;;;;;;;;;;16.62;100.00;98476.50;104991;1271;63230;-69
2022/09/11 07:22:45;;;;;;;;;;;;;;;16.50;100.00;98475.41;105024;1271;75431;-71
2022/09/11 07:25:11;;;;;;;;;;;;;;;16.30;100.00;98477.93;105047;1271;61282;-71
2022/09/11 07:27:38;;;;;;;;;;;;;;;16.16;100.00;98478.95;105008;1271;73777;-71
2022/09/11 07:32:56;;;;;;;;;;;;;;;16.16;100.00;98480.20;104936;1271;61291;-71
2022/09/11 07:35:22;;;;;;;;;;;;;;;16.14;100.00;98477.92;104976;1271;61374;-71
2022/09/11 07:37:49;;;;;;;;;;;;;;;16.02;100.00;98478.16;105105;1271;69228;-70
2022/09/11 07:40:16;;;;;;;;;;;;;;;15.86;100.00;98477.02;105074;1271;61256;-69
2022/09/11 07:42:42;;;;;;;;;;;;;;;15.76;100.00;98481.73;105128;1271;61332;-70
2022/09/11 07:45:09;;;;;;;;;;;;;;;15.67;100.00;98480.45;105173;1270;61362;-70
2022/09/11 07:47:37;;;;;;;;;;;;;;;15.59;100.00;98476.57;105151;1270;75690;-71
2022/09/11 07:50:03;;;;;;;;;;;;;;;15.50;100.00;98481.29;105143;1270;69699;-71
2022/09/11 07:52:32;;;;;;;;;;;;;;;15.47;100.00;98483.02;105289;1271;73414;-71
2022/09/11 07:55:00;;;;;;;;;;;;;;;15.47;100.00;98484.33;105146;1270;61295;-71
2022/09/11 07:57:26;;;;;;;;;;;;;;;15.48;100.00;98484.41;105157;1271;61253;-70
2022/09/11 07:59:54;;;;;;;;;;;;;;;15.58;100.00;98482.56;104893;1271;73997;-75
2022/09/11 08:02:21;;;;;;;;;;;;;;;15.70;100.00;98482.85;104936;1272;69414;-70
2022/09/11 08:04:48;;;;;;;;;;;;;;;15.78;100.00;98487.27;105222;1271;73631;-70
2022/09/11 08:07:17;;;;;;;;;;;;;;;15.78;100.00;98490.86;105206;1271;61339;-70
2022/09/11 08:09:43;;;;;;;;;;;;;;;15.78;100.00;98496.00;105161;1271;61355;-71
2022/09/11 08:12:10;;;;;;;;;;;;;;;15.78;100.00;98490.89;105133;1271;61452;-70
2022/09/11 08:14:36;;;;;;;;;;;;;;;15.76;100.00;98491.34;105195;1271;70917;-70
2022/09/11 08:17:02;;;;;;;;;;;;;;;15.75;100.00;98490.05;105166;1271;61298;-70
2022/09/11 08:19:28;;;;;;;;;;;;;;;15.76;100.00;98491.89;105172;1271;61310;-71
2022/09/11 08:21:55;;;;;;;;;;;;;;;15.81;100.00;98491.60;105152;1270;61266;-72
2022/09/11 08:24:23;;;;;;;;;;;;;;;15.87;100.00;98492.71;105188;1270;61441;-69
2022/09/11 08:26:49;;;;;;;;;;;;;;;16.00;100.00;98492.88;105261;1271;61393;-70
2022/09/11 08:29:17;;;;;;;;;;;;;;;16.14;100.00;98494.30;105299;1271;61273;-71
2022/09/11 08:31:44;;;;;;;;;;;;;;;16.33;100.00;98494.84;105144;1271;61318;-70
2022/09/11 08:34:09;;;;;;;;;;;;;;;16.44;100.00;98498.16;105159;1270;61191;-70
2022/09/11 08:36:36;;;;;;;;;;;;;;;16.58;100.00;98500.75;105219;1271;74380;-70
2022/09/11 08:39:04;;;;;;;;;;;;;;;16.68;100.00;98501.94;105142;1271;61314;-70
2022/09/11 08:41:47;;;;;;;;;;;;;;;16.71;100.00;98504.84;105360;1271;73442;-70
2022/09/11 08:44:19;;;;;;;;;;;;;;;16.69;100.00;98508.05;105188;1271;61287;-69
2022/09/11 08:46:48;;;;;;;;;;;;;;;16.63;100.00;98508.46;105170;1271;61273;-70
2022/09/11 08:49:34;;;;;;;;;;;;;;;16.56;100.00;98509.95;105104;1271;75410;-70
2022/09/11 08:52:01;;;;;;;;;;;;;;;16.45;100.00;98509.36;105130;1271;70364;-71
2022/09/11 08:54:32;;;;;;;;;;;;;;;16.40;100.00;98511.12;105112;1271;74447;-70
2022/09/11 08:57:01;;;;;;;;;;;;;;;16.40;100.00;98513.48;105337;1270;61468;-70
2022/09/11 08:59:43;;;;;;;;;;;;;;;16.39;100.00;98514.00;105119;1271;61334;-70
2022/09/11 09:02:09;;;;;;;;;;;;;;;16.33;100.00;98513.27;105311;1271;75637;-71
2022/09/11 09:04:54;;;;;;;;;;;;;;;16.27;100.00;98512.29;105146;1271;61376;-70
2022/09/11 09:07:25;;;;;;;;;;;;;;;16.23;100.00;98511.70;105133;1271;73336;-71
2022/09/11 09:09:51;;;;;;;;;;;;;;;16.28;100.00;98509.61;105060;1271;61481;-71
2022/09/11 09:12:34;;;;;;;;;;;;;;;16.33;100.00;98508.29;105128;1271;61388;-71
2022/09/11 09:15:00;;;;;;;;;;;;;;;16.49;100.00;98506.66;105114;1271;76837;-71
2022/09/11 09:17:42;;;;;;;;;;;;;;;16.75;100.00;98509.66;105043;1271;61314;-71
2022/09/11 09:20:16;;;;;;;;;;;;;;;17.02;100.00;98507.27;105076;1271;74296;-70
2022/09/11 09:22:44;;;;;;;;;;;;;;;17.17;100.00;98503.66;104872;1270;61246;-70
2022/09/11 09:25:12;;;;;;;;;;;;;;;17.26;100.00;98507.22;105127;1271;61220;-70
2022/09/11 09:27:44;;;;;;;;;;;;;;;17.30;100.00;98508.06;105172;1271;75294;-70
2022/09/11 09:30:15;;;;;;;;;;;;;;;17.28;100.00;98505.21;105144;1271;69716;-71
2022/09/11 09:32:47;;;;;;;;;;;;;;;17.29;100.00;98507.77;105154;1271;73316;-70
2022/09/11 09:35:21;;;;;;;;;;;;;;;17.47;100.00;98506.63;105101;1271;61632;-71
2022/09/11 09:37:48;;;;;;;;;;;;;;;17.72;100.00;98510.70;104866;1271;61824;-71
2022/09/11 09:40:16;;;;;;;;;;;;;;;17.96;100.00;98510.70;105115;1271;61364;-71
2022/09/11 09:42:51;;;;;;;;;;;;;;;18.10;100.00;98506.89;105218;1271;70158;-71
2022/09/11 09:45:25;;;;;;;;;;;;;;;18.16;100.00;98506.16;105127;1271;73371;-70
2022/09/11 09:47:52;;;;;;;;;;;;;;;18.10;100.00;98509.58;105165;1270;61481;-71
2022/09/11 09:50:27;;;;;;;;;;;;;;;17.89;100.00;98506.77;105180;1271;61339;-71
2022/09/11 09:52:58;;;;;;;;;;;;;;;17.62;100.00;98509.61;105164;1271;76799;-70
2022/09/11 09:55:25;;;;;;;;;;;;;;;17.48;100.00;98512.77;105196;1270;69387;-71
2022/09/11 09:57:52;;;;;;;;;;;;;;;17.41;100.00;98513.17;105148;1270;73096;-71
2022/09/11 10:00:20;;;;;;;;;;;;;;;17.44;100.00;98511.69;105285;1268;61365;-71
2022/09/11 10:02:52;;;;;;;;;;;;;;;17.56;100.00;98508.57;105216;1270;61262;-71
2022/09/11 10:05:23;;;;;;;;;;;;;;;17.77;100.00;98509.08;105226;1270;74339;-71
2022/09/11 10:07:59;;;;;;;;;;;;;;;18.03;100.00;98508.06;105243;1271;69215;-70
2022/09/11 10:10:33;;;;;;;;;;;;;;;18.28;100.00;98508.47;105010;1271;73419;-70
2022/09/11 10:13:02;;;;;;;;;;;;;;;18.48;100.00;98504.54;105186;1271;61354;-71
2022/09/11 10:15:28;;;;;;;;;;;;;;;18.59;100.00;98503.09;105178;1270;62192;-70
2022/09/11 10:18:13;;;;;;;;;;;;;;;18.71;100.00;98503.31;104928;1271;61284;-72
2022/09/11 10:20:40;;;;;;;;;;;;;;;18.84;100.00;98504.05;105044;1270;70499;-71
2022/09/11 10:23:25;;;;;;;;;;;;;;;18.96;100.00;98502.02;105143;1271;73416;-71
2022/09/11 10:25:52;;;;;;;;;;;;;;;19.09;100.00;98500.64;105011;1271;61314;-71
2022/09/11 10:28:27;;;;;;;;;;;;;;;19.20;100.00;98503.69;105191;1271;61340;-71
2022/09/11 10:30:59;;;;;;;;;;;;;;;19.33;100.00;98501.76;105180;1270;74424;-71
2022/09/11 10:33:31;;;;;;;;;;;;;;;19.38;100.00;98501.55;105203;1270;69354;-71
2022/09/11 10:35:59;;;;;;;;;;;;;;;19.40;100.00;98505.52;105145;1270;73437;-70
2022/09/11 10:38:44;;;;;;;;;;;;;;;19.46;100.00;98501.88;105074;1270;61346;-70
2022/09/11 10:41:13;;;;;;;;;;;;;;;19.49;100.00;98504.66;105169;1270;61260;-70
2022/09/11 10:43:42;;;;;;;;;;;;;;;19.54;100.00;98507.84;105103;1270;75267;-71
2022/09/11 10:46:27;;;;;;;;;;;;;;;19.65;100.00;98506.63;105186;1270;69326;-71
2022/09/11 10:48:55;;;;;;;;;;;;;;;19.77;100.00;98504.95;105094;1271;73618;-71
2022/09/11 10:51:22;;;;;;;;;;;;;;;19.81;100.00;98504.80;105118;1270;63029;-72
2022/09/11 10:53:53;;;;;;;;;;;;;;;19.81;100.00;98503.55;104963;1271;61672;-70
2022/09/11 10:56:20;;;;;;;;;;;;;;;19.66;100.00;98500.91;105168;1270;76347;-71
2022/09/11 10:58:47;;;;;;;;;;;;;;;19.40;100.00;98506.76;105097;1270;61312;-70
2022/09/11 11:01:14;;;;;;;;;;;;;;;19.07;100.00;98503.53;105159;1270;73479;-71
2022/09/11 11:03:40;;;;;;;;;;;;;;;18.88;100.00;98507.23;105131;1270;61272;-70
2022/09/11 11:06:24;;;;;;;;;;;;;;;18.80;100.00;98510.94;105113;1270;61358;-71
2022/09/11 11:08:57;;;;;;;;;;;;;;;18.77;100.00;98507.19;105140;1270;75488;-70
2022/09/11 11:11:36;;;;;;;;;;;;;;;18.75;100.00;98512.95;105326;1270;69380;-70
2022/09/11 11:14:23;;;;;;;;;;;;;;;18.68;100.00;98515.64;105039;1270;73615;-70
2022/09/11 11:16:52;;;;;;;;;;;;;;;18.57;100.00;98517.41;104497;1279;61372;-71
2022/09/11 11:19:26;;;;;;;;;;;;;;;18.56;100.00;98514.41;104598;1279;62134;-69
2022/09/11 11:22:00;;;;;;;;;;;;;;;18.65;100.00;98519.73;104490;1279;76008;-71
2022/09/11 11:24:33;;;;;;;;;;;;;;;18.81;100.00;98516.95;104520;1279;69639;-69
2022/09/11 11:27:17;;;;;;;;;;;;;;;18.97;100.00;98513.81;104452;1279;73367;-70
2022/09/11 11:30:02;;;;;;;;;;;;;;;19.06;100.00;98509.94;104466;1279;62106;-72
2022/09/11 11:32:38;;;;;;;;;;;;;;;19.09;100.00;98515.70;104494;1279;62204;-71
2022/09/11 11:35:19;;;;;;;;;;;;;;;19.12;100.00;98519.84;104550;1279;76244;-71
2022/09/11 11:37:47;;;;;;;;;;;;;;;19.05;100.00;98517.20;104441;1279;69783;-70
2022/09/11 11:40:35;;;;;;;;;;;;;;;19.02;100.00;98515.10;104474;1279;74407;-71
2022/09/11 11:43:09;;;;;;;;;;;;;;;19.03;100.00;98513.83;104475;1279;62394;-71
2022/09/11 11:45:43;;;;;;;;;;;;;;;19.07;100.00;98515.39;104448;1279;62021;-70
2022/09/11 11:48:13;;;;;;;;;;;;;;;19.20;100.00;98516.46;104463;1279;74807;-71
2022/09/11 11:50:41;;;;;;;;;;;;;;;19.30;100.00;98516.13;104556;1279;69491;-70
2022/09/11 11:53:17;;;;;;;;;;;;;;;19.41;100.00;98518.34;104505;1279;75000;-70
2022/09/11 11:55:59;;;;;;;;;;;;;;;19.55;100.00;98520.59;105084;1270;62076;-72
2022/09/11 11:58:45;;;;;;;;;;;;;;;19.79;100.00;98518.23;105147;1270;62156;-71
2022/09/11 12:01:21;;;;;;;;;;;;;;;20.13;100.00;98515.89;105409;1270;76934;-70
2022/09/11 12:03:51;;;;;;;;;;;;;;;20.38;100.00;98516.67;105107;1270;69530;-71
2022/09/11 12:06:18;;;;;;;;;;;;;;;20.42;100.00;98513.96;105093;1270;74902;-72
2022/09/11 12:08:44;;;;;;;;;;;;;;;20.60;100.00;98511.50;105108;1270;62180;-71
2022/09/11 12:11:13;;;;;;;;;;;;;;;20.78;100.00;98508.28;104983;1274;62216;-70
2022/09/11 12:13:41;;;;;;;;;;;;;;;20.93;100.00;98505.09;105044;1270;75987;-70
2022/09/11 12:16:16;;;;;;;;;;;;;;;20.99;100.00;98503.69;105154;1270;71006;-71
2022/09/11 12:19:06;;;;;;;;;;;;;;;21.05;100.00;98494.91;105095;1270;74699;-72
2022/09/11 12:21:34;;;;;;;;;;;;;;;21.28;100.00;98495.23;105092;1270;62236;-70
2022/09/11 12:24:01;;;;;;;;;;;;;;;21.43;100.00;98492.33;105143;1270;62119;-71
2022/09/11 12:26:30;;;;;;;;;;;;;;;21.58;100.00;98494.36;105145;1270;77167;-70
2022/09/11 12:29:11;;;;;;;;;;;;;;;21.59;100.00;98492.58;105224;1270;69445;-70
2022/09/11 12:32:05;;;;;;;;;;;;;;;21.60;100.00;98489.55;105210;1270;73319;-71
2022/09/11 12:34:37;;;;;;;;;;;;;;;21.40;100.00;98491.64;104505;1277;62113;-71
2022/09/11 12:37:06;;;;;;;;;;;;;;;21.33;100.00;98488.33;104617;1277;62258;-71
2022/09/11 12:39:35;;;;;;;;;;;;;;;21.39;100.00;98487.89;104627;1277;77178;-71
2022/09/11 12:42:27;;;;;;;;;;;;;;;21.51;100.00;98485.54;104523;1277;69117;-71